Time;durP1;ratioP1;P1;durP2;ratioP2;P2;SDS_P1;SDS_P2;PMS_P1;PMS_P2;Temp;Humidity;BMP_temperature;BMP_pressure;BME280_temperature;BME280_humidity;BME280_pressure;Samples;Min_cycle;Max_cycle;Signal;HPM_P1;HPM_P2
2022/10/02 00:00:16;;;;;;;11.32;3.05;;;12.00;99.90;;;;;;5135095;27;20038;-83
2022/10/02 00:02:42;;;;;;;11.98;2.78;;;12.00;99.90;;;;;;5123071;27;20039;-84
2022/10/02 00:05:22;;;;;;;12.55;2.80;;;12.00;99.90;;;;;;5132169;27;20785;-83
2022/10/02 00:07:54;;;;;;;9.43;2.90;;;11.90;99.90;;;;;;5129714;27;20543;-84
2022/10/02 00:10:31;;;;;;;12.55;3.40;;;11.90;99.90;;;;;;5132103;27;20126;-84
2022/10/02 00:13:01;;;;;;;9.57;2.35;;;11.90;99.90;;;;;;5138571;27;20037;-84
2022/10/02 00:15:30;;;;;;;11.73;2.50;;;11.90;99.90;;;;;;5138437;27;20066;-84
2022/10/02 00:18:06;;;;;;;15.43;3.03;;;11.90;99.90;;;;;;5137718;27;20031;-84
2022/10/02 00:20:43;;;;;;;11.13;2.42;;;11.90;99.90;;;;;;5134563;27;20042;-84
2022/10/02 00:23:31;;;;;;;14.00;2.72;;;11.90;99.90;;;;;;5145246;27;20035;-84
2022/10/02 00:26:20;;;;;;;9.68;2.33;;;11.80;99.90;;;;;;5142986;27;20050;-84
2022/10/02 00:29:09;;;;;;;15.90;3.00;;;11.80;99.90;;;;;;5150739;27;20050;-84
2022/10/02 00:32:01;;;;;;;10.40;2.78;;;11.80;99.90;;;;;;5141636;27;20058;-84
2022/10/02 00:34:38;;;;;;;10.15;2.35;;;11.80;99.90;;;;;;5137195;27;20050;-84
2022/10/02 00:37:45;;;;;;;13.63;2.58;;;11.80;99.90;;;;;;5136274;27;20220;-85
2022/10/02 00:40:36;;;;;;;6.80;2.10;;;11.80;99.90;;;;;;5138944;27;20117;-85
2022/10/02 00:43:40;;;;;;;8.43;2.33;;;11.80;99.90;;;;;;5129145;27;20455;-84
2022/10/02 00:46:34;;;;;;;10.70;3.00;;;11.80;99.90;;;;;;5149454;27;20050;-84
2022/10/02 00:49:05;;;;;;;10.02;2.47;;;11.70;99.90;;;;;;5139529;27;20091;-84
2022/10/02 00:52:15;;;;;;;10.23;2.45;;;11.70;99.90;;;;;;5141311;27;20511;-86
2022/10/02 00:54:56;;;;;;;13.75;3.10;;;11.80;99.90;;;;;;5135702;27;20082;-84
2022/10/02 00:57:40;;;;;;;10.15;2.40;;;11.70;99.90;;;;;;5131713;27;20042;-84
2022/10/02 01:00:14;;;;;;;9.35;2.22;;;11.80;99.90;;;;;;5158523;27;20121;-85
2022/10/02 01:02:45;;;;;;;10.75;2.40;;;11.70;99.90;;;;;;5139887;27;20039;-84
2022/10/02 01:05:12;;;;;;;16.65;3.33;;;11.80;99.90;;;;;;5141286;27;20035;-85
2022/10/02 01:07:44;;;;;;;10.13;2.78;;;11.80;99.90;;;;;;5091702;27;20039;-85
2022/10/02 01:10:12;;;;;;;12.10;3.60;;;11.80;99.90;;;;;;5134439;27;20031;-84
2022/10/02 01:12:38;;;;;;;12.93;3.10;;;11.80;99.90;;;;;;5128294;27;20039;-84
2022/10/02 01:15:17;;;;;;;13.85;3.05;;;11.90;99.90;;;;;;5124831;27;20035;-84
2022/10/02 01:17:44;;;;;;;13.00;2.92;;;11.90;99.90;;;;;;5136916;27;20079;-84
2022/10/02 01:20:16;;;;;;;12.60;3.10;;;11.90;99.90;;;;;;5139662;27;20094;-84
2022/10/02 01:23:16;;;;;;;11.55;2.90;;;11.90;99.90;;;;;;5129797;27;20487;-84
2022/10/02 01:25:43;;;;;;;15.45;3.67;;;11.90;99.90;;;;;;5137859;27;20035;-85
2022/10/02 01:28:10;;;;;;;15.18;2.97;;;11.90;99.90;;;;;;5121003;27;20122;-84
2022/10/02 01:30:39;;;;;;;13.88;3.28;;;11.90;99.90;;;;;;5122881;27;20541;-85
2022/10/02 01:33:05;;;;;;;10.57;3.03;;;11.90;99.90;;;;;;5136951;27;20035;-85
2022/10/02 01:35:36;;;;;;;13.88;3.10;;;11.90;99.90;;;;;;5116542;27;20055;-84
2022/10/02 01:38:06;;;;;;;14.85;3.35;;;11.90;99.90;;;;;;5149470;27;20031;-85
2022/10/02 01:40:34;;;;;;;15.15;3.60;;;11.90;99.90;;;;;;5142242;27;20036;-85
2022/10/02 01:43:10;;;;;;;13.98;3.00;;;11.90;99.90;;;;;;5136533;27;20060;-84
2022/10/02 01:46:04;;;;;;;14.32;3.42;;;11.90;99.90;;;;;;5139263;27;20035;-85
2022/10/02 01:48:54;;;;;;;15.93;3.55;;;11.90;99.90;;;;;;5135499;27;20462;-85
2022/10/02 01:51:19;;;;;;;19.52;3.65;;;11.90;99.90;;;;;;5138440;27;20068;-85
2022/10/02 01:53:52;;;;;;;14.20;3.38;;;11.80;99.90;;;;;;5138733;27;20508;-85
2022/10/02 01:56:27;;;;;;;14.05;2.88;;;11.80;99.90;;;;;;5130310;27;20043;-85
2022/10/02 01:59:19;;;;;;;16.73;3.92;;;11.80;99.90;;;;;;5135350;27;20043;-84
2022/10/02 02:02:00;;;;;;;13.32;2.85;;;11.80;99.90;;;;;;5130450;27;20035;-84
2022/10/02 02:04:52;;;;;;;13.88;3.00;;;11.80;99.90;;;;;;5151655;27;20023;-84
2022/10/02 02:07:42;;;;;;;12.15;2.90;;;11.80;99.90;;;;;;5135528;27;20098;-84
2022/10/02 02:10:23;;;;;;;12.25;3.63;;;11.70;99.90;;;;;;5129897;27;20038;-85
2022/10/02 02:13:06;;;;;;;11.80;2.90;;;11.70;99.90;;;;;;5140828;27;20039;-85
2022/10/02 02:16:01;;;;;;;12.10;3.42;;;11.70;99.90;;;;;;5138272;27;20042;-84
2022/10/02 02:18:27;;;;;;;11.52;2.60;;;11.70;99.90;;;;;;5148619;27;20110;-83
2022/10/02 02:20:57;;;;;;;14.13;2.38;;;11.70;99.90;;;;;;5138726;27;20119;-83
2022/10/02 02:23:28;;;;;;;9.95;2.35;;;12.00;99.90;;;;;;5141724;27;20035;-82
2022/10/02 02:25:59;;;;;;;9.77;2.28;;;11.70;99.90;;;;;;5161872;27;20046;-83
2022/10/02 02:28:29;;;;;;;9.38;2.25;;;11.70;99.90;;;;;;5154777;27;20126;-83
2022/10/02 02:30:56;;;;;;;10.18;2.15;;;11.70;99.90;;;;;;5136975;27;20117;-83
2022/10/02 02:33:35;;;;;;;10.05;2.28;;;11.70;99.90;;;;;;5166739;27;20105;-83
2022/10/02 02:36:05;;;;;;;8.75;1.90;;;11.70;99.90;;;;;;5140099;27;20073;-83
2022/10/02 02:39:11;;;;;;;9.38;2.80;;;11.70;99.90;;;;;;5135025;27;20042;-83
2022/10/02 02:41:46;;;;;;;8.15;1.70;;;11.70;99.90;;;;;;5149450;27;20046;-83
2022/10/02 02:44:24;;;;;;;14.68;2.30;;;11.70;99.90;;;;;;5142300;27;20070;-83
2022/10/02 02:47:21;;;;;;;6.43;1.80;;;11.70;99.90;;;;;;5154159;27;20509;-82
2022/10/02 02:50:01;;;;;;;5.85;1.55;;;11.60;99.90;;;;;;5135092;27;20434;-84
2022/10/02 02:52:50;;;;;;;7.10;2.10;;;11.60;99.90;;;;;;5134501;27;20046;-83
2022/10/02 02:55:28;;;;;;;7.40;1.90;;;11.60;99.90;;;;;;5127090;27;20124;-82
2022/10/02 02:58:01;;;;;;;6.85;1.70;;;11.50;99.90;;;;;;5122511;27;20030;-83
2022/10/02 03:00:27;;;;;;;8.32;1.92;;;11.50;99.90;;;;;;5154178;27;20039;-82
2022/10/02 03:02:54;;;;;;;6.60;2.13;;;11.50;99.90;;;;;;5136855;27;20046;-83
2022/10/02 03:05:21;;;;;;;8.13;1.70;;;11.50;99.90;;;;;;5100111;27;20039;-81
2022/10/02 03:07:55;;;;;;;6.35;1.60;;;11.50;99.90;;;;;;5136921;27;20087;-82
2022/10/02 03:11:10;;;;;;;7.95;1.90;;;11.50;99.90;;;;;;5133301;27;20130;-82
2022/10/02 03:13:50;;;;;;;6.68;1.85;;;11.50;99.90;;;;;;5052700;28;20040;-82
2022/10/02 03:16:48;;;;;;;7.28;1.70;;;11.40;99.90;;;;;;5125132;27;20406;-82
2022/10/02 03:19:37;;;;;;;7.03;1.77;;;11.40;99.90;;;;;;5136066;27;20134;-82
2022/10/02 03:22:15;;;;;;;7.22;1.85;;;11.40;99.90;;;;;;5132148;27;20126;-82
2022/10/02 03:24:45;;;;;;;9.32;2.00;;;11.30;99.90;;;;;;5136326;27;20387;-82
2022/10/02 03:27:25;;;;;;;9.90;2.20;;;11.40;99.90;;;;;;5136896;27;20042;-82
2022/10/02 03:30:19;;;;;;;8.38;1.80;;;11.40;99.90;;;;;;5131241;27;20038;-84
2022/10/02 03:32:47;;;;;;;7.80;1.80;;;11.30;99.90;;;;;;5124695;27;20091;-83
2022/10/02 03:35:13;;;;;;;8.02;1.90;;;11.30;99.90;;;;;;5150786;27;20035;-82
2022/10/02 03:37:46;;;;;;;9.82;2.10;;;11.30;99.90;;;;;;5116430;27;20053;-82
2022/10/02 03:40:12;;;;;;;9.85;2.10;;;11.30;99.90;;;;;;5152434;27;20500;-82
2022/10/02 03:42:38;;;;;;;10.07;2.75;;;11.40;99.90;;;;;;5102373;27;20035;-82
2022/10/02 03:45:05;;;;;;;11.35;2.58;;;11.30;99.90;;;;;;5135431;27;20037;-83
2022/10/02 03:47:31;;;;;;;8.52;2.17;;;11.30;99.90;;;;;;5110732;27;20050;-83
2022/10/02 03:49:57;;;;;;;9.95;2.30;;;11.30;99.90;;;;;;5147468;27;20049;-82
2022/10/02 03:52:23;;;;;;;10.18;2.53;;;11.30;99.90;;;;;;5100618;27;20067;-83
2022/10/02 03:54:55;;;;;;;11.35;2.10;;;11.20;99.90;;;;;;5117955;27;20066;-83
2022/10/02 03:57:23;;;;;;;14.02;2.63;;;11.30;99.90;;;;;;5134426;27;20099;-83
2022/10/02 04:00:08;;;;;;;9.13;2.40;;;11.30;99.90;;;;;;5137063;27;20386;-83
2022/10/02 04:02:37;;;;;;;14.60;2.60;;;11.30;99.90;;;;;;5136335;27;20046;-83
2022/10/02 04:05:55;;;;;;;14.13;3.22;;;11.30;99.90;;;;;;5157547;27;20093;-83
2022/10/02 04:08:28;;;;;;;;;;;11.30;99.90;;;;;;5114013;27;20054;-83
2022/10/02 04:11:06;;;;;;;11.88;2.38;;;11.30;99.90;;;;;;5140708;27;19922;-83
2022/10/02 04:13:32;;;;;;;11.35;2.60;;;11.30;99.90;;;;;;5157806;27;20038;-83
2022/10/02 04:16:31;;;;;;;13.60;2.92;;;11.40;99.90;;;;;;5139691;27;20558;-83
2022/10/02 04:18:59;;;;;;;12.40;3.10;;;11.30;99.90;;;;;;5134420;27;20291;-83
2022/10/02 04:21:33;;;;;;;16.48;3.13;;;11.30;99.90;;;;;;5153409;27;20126;-83
2022/10/02 04:24:25;;;;;;;12.68;3.00;;;11.30;99.90;;;;;;5141584;27;20041;-83
2022/10/02 04:27:19;;;;;;;17.90;3.20;;;11.30;99.90;;;;;;5142297;27;20035;-83
2022/10/02 04:29:58;;;;;;;12.18;2.70;;;11.30;99.90;;;;;;5136595;27;20125;-82
2022/10/02 04:32:32;;;;;;;16.42;2.92;;;11.30;99.90;;;;;;5144244;27;20103;-82
2022/10/02 04:34:59;;;;;;;14.43;3.20;;;11.30;99.90;;;;;;5131676;27;20034;-82
2022/10/02 04:37:49;;;;;;;14.63;3.15;;;11.40;99.90;;;;;;5161934;27;20035;-83
2022/10/02 04:40:37;;;;;;;17.65;3.30;;;11.20;99.90;;;;;;5154154;27;20031;-83
2022/10/02 04:43:29;;;;;;;12.15;2.63;;;11.20;99.90;;;;;;5137219;27;20057;-83
2022/10/02 04:46:25;;;;;;;17.15;3.05;;;11.20;99.90;;;;;;5144315;27;20555;-84
2022/10/02 04:49:28;;;;;;;17.43;3.27;;;11.20;99.90;;;;;;5138063;27;20039;-83
2022/10/02 04:52:03;;;;;;;15.23;3.00;;;11.20;99.90;;;;;;5133544;27;20051;-84
2022/10/02 04:55:06;;;;;;;17.95;3.22;;;11.20;99.90;;;;;;5152690;27;20525;-84
2022/10/02 04:57:44;;;;;;;13.70;2.80;;;11.20;99.90;;;;;;5139247;27;20062;-83
2022/10/02 05:00:19;;;;;;;13.82;2.90;;;11.20;99.90;;;;;;5135118;27;20438;-83
2022/10/02 05:02:56;;;;;;;10.30;2.67;;;11.20;99.90;;;;;;5134334;27;20057;-83
2022/10/02 05:06:01;;;;;;;15.90;3.33;;;11.20;99.90;;;;;;5133493;27;20952;-83
2022/10/02 05:08:49;;;;;;;14.93;3.47;;;11.20;99.90;;;;;;5157724;27;20039;-83
2022/10/02 05:11:27;;;;;;;12.00;2.95;;;11.10;99.90;;;;;;5156595;27;20042;-83
2022/10/02 05:14:30;;;;;;;17.80;3.67;;;11.10;99.90;;;;;;5137496;27;20046;-83
2022/10/02 05:17:24;;;;;;;14.20;3.10;;;11.10;99.90;;;;;;5154767;27;20138;-83
2022/10/02 05:20:22;;;;;;;13.63;3.30;;;11.10;99.90;;;;;;5140224;27;20525;-83
2022/10/02 05:23:20;;;;;;;12.07;3.10;;;11.10;99.90;;;;;;5110795;27;20191;-83
2022/10/02 05:25:57;;;;;;;8.65;2.70;;;11.10;99.90;;;;;;5124721;27;20051;-83
2022/10/02 05:28:31;;;;;;;16.77;3.10;;;11.10;99.90;;;;;;5136914;27;20038;-83
2022/10/02 05:31:36;;;;;;;15.88;2.75;;;11.10;99.90;;;;;;5138954;27;20039;-83
2022/10/02 05:34:30;;;;;;;14.07;3.13;;;11.00;99.90;;;;;;5139101;27;20129;-83
2022/10/02 05:37:16;;;;;;;16.35;3.33;;;11.10;99.90;;;;;;5135366;27;20043;-83
2022/10/02 05:40:30;;;;;;;11.52;2.90;;;11.00;99.90;;;;;;5132772;27;20039;-83
2022/10/02 05:43:14;;;;;;;11.10;2.67;;;11.00;99.90;;;;;;5104607;27;20051;-83
2022/10/02 05:45:43;;;;;;;15.48;3.30;;;11.00;99.90;;;;;;5137952;27;20035;-83
2022/10/02 05:48:21;;;;;;;15.63;3.33;;;11.00;99.90;;;;;;5140008;27;20042;-83
2022/10/02 05:50:53;;;;;;;10.35;2.60;;;11.00;99.90;;;;;;5132480;27;20072;-83
2022/10/02 05:53:36;;;;;;;14.75;3.20;;;11.00;99.90;;;;;;5146675;27;20079;-83
2022/10/02 05:56:34;;;;;;;12.18;2.97;;;11.00;99.90;;;;;;5141472;27;20066;-83
2022/10/02 05:59:08;;;;;;;16.25;3.33;;;11.00;99.90;;;;;;5154408;27;20039;-82
2022/10/02 06:01:41;;;;;;;18.02;3.05;;;11.00;99.90;;;;;;5132833;27;20043;-84
2022/10/02 06:04:21;;;;;;;15.20;3.20;;;11.00;99.90;;;;;;5146745;27;20081;-83
2022/10/02 06:06:53;;;;;;;11.75;2.95;;;11.10;99.90;;;;;;5125156;27;20027;-84
2022/10/02 06:09:42;;;;;;;13.32;2.92;;;11.10;99.90;;;;;;5132836;27;20050;-83
2022/10/02 06:12:11;;;;;;;15.40;3.10;;;11.10;99.90;;;;;;5106770;27;20062;-83
2022/10/02 06:15:03;;;;;;;14.00;3.03;;;11.10;99.90;;;;;;5120997;27;20042;-83
2022/10/02 06:17:35;;;;;;;17.67;3.38;;;11.10;99.90;;;;;;5123780;27;20110;-83
2022/10/02 06:20:24;;;;;;;13.93;2.78;;;11.10;99.90;;;;;;5132324;27;20031;-83
2022/10/02 06:22:59;;;;;;;12.48;2.67;;;11.20;99.90;;;;;;5137013;27;20045;-83
2022/10/02 06:25:36;;;;;;;13.50;3.10;;;11.20;99.90;;;;;;5136631;27;20505;-83
2022/10/02 06:28:14;;;;;;;12.05;2.67;;;11.20;99.90;;;;;;5129338;27;20047;-82
2022/10/02 06:30:45;;;;;;;15.00;2.85;;;11.30;99.90;;;;;;5156947;27;20031;-81
2022/10/02 06:33:22;;;;;;;14.60;3.67;;;11.30;99.90;;;;;;5138295;27;20047;-82
2022/10/02 06:36:16;;;;;;;15.63;3.80;;;11.40;99.90;;;;;;5134912;27;20043;-83
2022/10/02 06:38:51;;;;;;;15.27;3.00;;;11.40;99.90;;;;;;5130726;27;20043;-83
2022/10/02 06:41:25;;;;;;;15.02;3.20;;;11.50;99.90;;;;;;5138060;27;20039;-83
2022/10/02 06:44:18;;;;;;;17.67;3.45;;;11.50;99.90;;;;;;5154783;27;20038;-82
2022/10/02 06:47:13;;;;;;;14.38;2.60;;;11.60;99.90;;;;;;5127196;27;20085;-84
2022/10/02 06:50:14;;;;;;;8.32;2.15;;;11.70;99.90;;;;;;5127207;27;20050;-82
2022/10/02 06:52:57;;;;;;;12.38;2.78;;;11.80;99.90;;;;;;5136300;27;20054;-83
2022/10/02 06:55:41;;;;;;;16.17;3.03;;;11.80;99.90;;;;;;5118369;27;20038;-83
2022/10/02 06:58:14;;;;;;;12.90;2.85;;;11.90;99.90;;;;;;5135950;27;20542;-84
2022/10/02 07:00:48;;;;;;;19.40;3.42;;;11.90;99.90;;;;;;5138344;27;20049;-83
2022/10/02 07:03:36;;;;;;;17.85;3.72;;;11.90;99.90;;;;;;5155700;27;20049;-82
2022/10/02 07:06:20;;;;;;;12.95;2.42;;;12.00;99.90;;;;;;5138282;27;20039;-82
2022/10/02 07:09:23;;;;;;;11.98;2.65;;;12.00;99.90;;;;;;5137914;27;20034;-83
2022/10/02 07:12:30;;;;;;;13.60;2.95;;;12.00;99.90;;;;;;5138164;27;20039;-83
2022/10/02 07:15:22;;;;;;;13.07;3.20;;;12.10;99.90;;;;;;5137897;27;20107;-83
2022/10/02 07:18:15;;;;;;;11.98;2.50;;;12.10;99.90;;;;;;5137071;27;20046;-84
2022/10/02 07:21:00;;;;;;;18.70;3.58;;;12.20;99.90;;;;;;5137778;27;20038;-84
2022/10/02 07:23:45;;;;;;;14.15;3.05;;;12.30;99.90;;;;;;5137780;27;20046;-84
2022/10/02 07:30:52;;;;;;;9.20;2.80;;;12.50;99.90;;;;;;5156847;27;20034;-84
2022/10/02 07:33:44;;;;;;;13.52;2.90;;;12.60;99.90;;;;;;5153304;27;20394;-82
2022/10/02 07:36:32;;;;;;;14.27;2.70;;;12.80;99.90;;;;;;5137712;27;20074;-81
2022/10/02 07:39:23;;;;;;;14.90;2.97;;;12.90;99.90;;;;;;5154238;27;20043;-83
2022/10/02 07:42:14;;;;;;;11.35;3.38;;;13.00;99.90;;;;;;5135158;27;20039;-81
2022/10/02 07:44:46;;;;;;;13.73;2.95;;;13.10;99.90;;;;;;5137506;27;20069;-81
2022/10/02 07:47:22;;;;;;;14.43;2.83;;;13.30;99.90;;;;;;5116899;28;20035;-82
2022/10/02 07:49:50;;;;;;;;;;;13.40;99.90;;;;;;5117360;28;20368;-82
2022/10/02 07:52:31;;;;;;;16.48;3.65;;;13.50;99.90;;;;;;5124936;27;19919;-82
2022/10/02 07:55:07;;;;;;;17.27;2.83;;;13.60;99.90;;;;;;5137660;27;20051;-82
2022/10/02 07:57:45;;;;;;;15.15;3.17;;;13.70;99.90;;;;;;5137041;27;20171;-81
2022/10/02 08:00:16;;;;;;;19.10;3.53;;;13.80;99.90;;;;;;5154271;27;20043;-82
2022/10/02 08:03:05;;;;;;;17.85;3.08;;;13.80;99.90;;;;;;5155038;27;20062;-82
2022/10/02 08:05:51;;;;;;;10.52;2.58;;;13.80;99.90;;;;;;5137800;27;20043;-81
2022/10/02 08:08:30;;;;;;;16.95;3.45;;;13.80;99.90;;;;;;5137204;27;20035;-82
2022/10/02 08:11:22;;;;;;;15.20;2.83;;;13.60;99.90;;;;;;5154653;27;20039;-82
2022/10/02 08:14:14;;;;;;;12.95;2.80;;;13.90;99.90;;;;;;5136877;27;20047;-82
2022/10/02 08:16:47;;;;;;;16.98;3.42;;;13.90;99.90;;;;;;5137941;27;20340;-82
2022/10/02 08:19:24;;;;;;;13.57;2.42;;;13.90;99.90;;;;;;5137237;27;20035;-82
2022/10/02 08:21:57;;;;;;;9.10;2.50;;;13.90;99.90;;;;;;5117294;28;20039;-82
2022/10/02 08:24:29;;;;;;;16.30;3.40;;;13.90;99.90;;;;;;5116724;28;20046;-82
2022/10/02 08:27:03;;;;;;;10.75;2.88;;;13.90;99.90;;;;;;5116633;28;20042;-82
2022/10/02 08:29:40;;;;;;;15.85;2.95;;;14.00;99.90;;;;;;5133348;28;20035;-82
2022/10/02 08:32:13;;;;;;;14.98;3.13;;;14.00;99.90;;;;;;5134442;27;20035;-82
2022/10/02 08:34:40;;;;;;;16.83;3.10;;;14.10;99.90;;;;;;5120372;27;20538;-82
2022/10/02 08:37:09;;;;;;;15.43;2.90;;;14.10;99.90;;;;;;5137380;27;20038;-83
2022/10/02 08:40:27;;;;;;;13.20;2.45;;;14.20;99.90;;;;;;5156032;27;20034;-82
2022/10/02 08:43:16;;;;;;;12.25;2.60;;;14.20;99.90;;;;;;5123867;27;20081;-81
2022/10/02 08:46:08;;;;;;;13.77;3.10;;;14.30;99.90;;;;;;5125582;27;20411;-82
2022/10/02 08:49:01;;;;;;;14.57;2.90;;;14.30;99.90;;;;;;5119760;27;20046;-82
2022/10/02 08:51:43;;;;;;;14.60;2.50;;;14.30;99.90;;;;;;5136545;27;20082;-82
2022/10/02 08:54:21;;;;;;;15.27;2.70;;;14.30;99.90;;;;;;5119725;27;20074;-82
2022/10/02 08:57:12;;;;;;;12.05;2.78;;;14.40;99.90;;;;;;5119589;27;20078;-82
2022/10/02 08:59:52;;;;;;;13.45;2.42;;;14.40;99.90;;;;;;5128122;27;20035;-82
2022/10/02 09:02:20;;;;;;;12.23;2.30;;;14.50;99.90;;;;;;5140972;27;20051;-82
2022/10/02 09:05:08;;;;;;;15.95;3.33;;;14.50;99.90;;;;;;5157667;27;20428;-81
2022/10/02 09:07:49;;;;;;;13.63;2.60;;;14.50;99.90;;;;;;5141434;27;20038;-82
2022/10/02 09:10:36;;;;;;;13.20;2.50;;;14.60;99.90;;;;;;5140866;27;20104;-81
2022/10/02 09:13:22;;;;;;;20.10;3.05;;;14.60;99.90;;;;;;5173175;27;20031;-83
2022/10/02 09:16:05;;;;;;;18.73;2.70;;;14.70;99.90;;;;;;5176278;27;20050;-82
2022/10/02 09:18:58;;;;;;;15.10;2.42;;;14.80;99.90;;;;;;5143729;27;20088;-82
2022/10/02 09:21:49;;;;;;;10.60;2.30;;;14.80;99.90;;;;;;5150552;27;20129;-82
2022/10/02 09:24:39;;;;;;;11.45;2.30;;;14.90;99.90;;;;;;5140207;27;20043;-82
2022/10/02 09:27:20;;;;;;;15.95;3.10;;;14.90;99.90;;;;;;5158379;27;20490;-82
2022/10/02 09:30:04;;;;;;;15.15;2.45;;;15.00;99.90;;;;;;5120570;27;20083;-82
2022/10/02 09:33:05;;;;;;;15.75;2.50;;;15.00;99.90;;;;;;5119292;27;20040;-82
2022/10/02 09:36:17;;;;;;;11.63;2.78;;;15.00;99.90;;;;;;5119073;27;20074;-82
2022/10/02 09:39:01;;;;;;;12.70;2.88;;;15.10;99.90;;;;;;5118986;27;20039;-82
2022/10/02 09:41:49;;;;;;;15.80;2.45;;;15.20;99.90;;;;;;5136283;27;20035;-82
2022/10/02 09:44:57;;;;;;;15.90;3.47;;;15.30;99.90;;;;;;5119474;27;20039;-82
2022/10/02 09:48:05;;;;;;;12.55;3.10;;;15.30;99.90;;;;;;5118982;27;20046;-82
2022/10/02 09:51:01;;;;;;;15.25;2.97;;;15.30;99.90;;;;;;5127411;27;20130;-82
2022/10/02 09:53:32;;;;;;;13.00;1.92;;;15.30;99.90;;;;;;5065888;27;20400;-82
2022/10/02 09:56:55;;;;;;;17.80;3.20;;;15.40;99.90;;;;;;5119025;27;20103;-82
2022/10/02 09:59:39;;;;;;;14.32;2.28;;;15.50;99.90;;;;;;5073862;28;20099;-81
2022/10/02 10:02:32;;;;;;;11.80;2.33;;;15.50;99.90;;;;;;5057041;28;20051;-81
2022/10/02 10:05:07;;;;;;;11.60;2.20;;;15.60;99.90;;;;;;5117166;27;20055;-82
2022/10/02 10:08:12;;;;;;;16.50;3.10;;;15.70;99.90;;;;;;5136262;27;20031;-82
2022/10/02 10:11:09;;;;;;;14.27;3.13;;;15.80;99.90;;;;;;5128336;27;20091;-81
2022/10/02 10:13:43;;;;;;;14.00;2.72;;;16.00;99.90;;;;;;5139320;27;20035;-81
2022/10/02 10:16:29;;;;;;;14.60;2.72;;;16.10;99.90;;;;;;5137931;27;20110;-82
2022/10/02 10:19:44;;;;;;;13.55;2.20;;;16.20;99.90;;;;;;5156297;27;20043;-83
2022/10/02 10:22:28;;;;;;;11.98;2.40;;;16.20;99.90;;;;;;5128689;27;20043;-81
2022/10/02 10:25:15;;;;;;;11.85;2.30;;;16.10;99.90;;;;;;5134953;27;20394;-81
2022/10/02 10:27:59;;;;;;;;;;;16.10;99.90;;;;;;5119072;27;20043;-83
2022/10/02 10:30:49;;;;;;;14.48;1.90;;;16.20;99.90;;;;;;5118023;27;19915;-81
2022/10/02 10:33:50;;;;;;;10.30;2.53;;;16.10;99.90;;;;;;5135323;27;20040;-82
2022/10/02 10:39:36;;;;;;;13.10;2.63;;;15.90;99.90;;;;;;5154957;27;20049;-81
2022/10/02 10:42:35;;;;;;;12.23;2.85;;;15.80;99.90;;;;;;5137491;27;20386;-81
2022/10/02 10:45:23;;;;;;;13.77;2.30;;;15.80;99.90;;;;;;5099894;27;20054;-80
2022/10/02 10:48:11;;;;;;;15.32;2.80;;;15.90;99.90;;;;;;5149808;27;20049;-81
2022/10/02 10:50:43;;;;;;;7.40;2.35;;;15.90;99.90;;;;;;5135551;27;20026;-82
2022/10/02 10:53:36;;;;;;;9.20;2.80;;;16.10;99.90;;;;;;5124945;27;20055;-82
2022/10/02 10:56:20;;;;;;;13.93;2.45;;;16.20;99.90;;;;;;5116820;27;20095;-82
2022/10/02 10:59:15;;;;;;;14.38;2.70;;;16.40;99.90;;;;;;5134151;27;20039;-82
2022/10/02 11:01:59;;;;;;;19.23;2.83;;;16.40;99.90;;;;;;5136553;27;20066;-82
2022/10/02 11:04:43;;;;;;;11.82;2.40;;;16.50;99.90;;;;;;5136468;27;20050;-82
2022/10/02 11:07:36;;;;;;;10.15;2.17;;;16.50;99.90;;;;;;5138742;27;20409;-83
2022/10/02 11:10:37;;;;;;;10.70;2.22;;;16.60;99.90;;;;;;5137639;27;20035;-81
2022/10/02 11:13:12;;;;;;;11.95;2.40;;;16.60;99.90;;;;;;5109727;27;20051;-82
2022/10/02 11:16:11;;;;;;;8.38;2.00;;;16.70;99.90;;;;;;5117458;27;20395;-82
2022/10/02 11:18:55;;;;;;;10.32;2.22;;;16.80;99.90;;;;;;5117870;27;20035;-82
2022/10/02 11:21:42;;;;;;;10.15;2.53;;;16.80;99.90;;;;;;5118557;27;20043;-82
2022/10/02 11:24:26;;;;;;;;;;;16.90;99.90;;;;;;5139889;27;20038;-82
2022/10/02 11:27:23;;;;;;;12.90;2.45;;;16.90;99.90;;;;;;5132476;27;20395;-84
2022/10/02 11:30:22;;;;;;;13.68;2.97;;;16.80;99.90;;;;;;5137681;27;20074;-82
2022/10/02 11:33:09;;;;;;;14.20;2.95;;;16.70;99.90;;;;;;5138978;27;20049;-83
2022/10/02 11:36:04;;;;;;;8.70;2.35;;;16.50;99.90;;;;;;5133771;27;20039;-82
2022/10/02 11:39:04;;;;;;;13.15;2.50;;;16.40;99.90;;;;;;5100259;27;20040;-81
2022/10/02 11:41:52;;;;;;;16.45;2.72;;;16.40;99.90;;;;;;5155231;27;20039;-82
2022/10/02 11:44:36;;;;;;;12.30;2.33;;;16.40;99.90;;;;;;5151840;27;20054;-82
2022/10/02 11:47:36;;;;;;;9.98;2.40;;;16.50;99.90;;;;;;5133301;27;20121;-82
2022/10/02 11:50:21;;;;;;;10.02;2.45;;;16.50;99.90;;;;;;5154531;27;20074;-81
2022/10/02 11:53:14;;;;;;;10.55;2.38;;;16.40;99.90;;;;;;5137432;27;20510;-83
2022/10/02 11:55:49;;;;;;;13.40;2.53;;;16.40;99.90;;;;;;5154191;27;20050;-81
2022/10/02 11:58:27;;;;;;;13.32;2.35;;;16.40;99.90;;;;;;5137470;27;20038;-81
2022/10/02 12:01:05;;;;;;;14.10;2.80;;;16.30;99.90;;;;;;5132881;27;20088;-81
2022/10/02 12:03:48;;;;;;;11.90;2.53;;;16.20;99.90;;;;;;5123932;27;20199;-81
2022/10/02 12:06:23;;;;;;;11.95;2.25;;;16.10;99.90;;;;;;5124086;28;20042;-81
2022/10/02 12:08:51;;;;;;;13.15;2.25;;;16.10;99.90;;;;;;5142078;27;20521;-82
2022/10/02 12:11:32;;;;;;;13.43;2.40;;;16.00;99.90;;;;;;5135740;27;20390;-82
2022/10/02 12:14:10;;;;;;;16.55;2.45;;;16.00;99.90;;;;;;5155345;27;20051;-82
2022/10/02 12:16:55;;;;;;;16.20;3.25;;;16.00;99.90;;;;;;5141234;27;20103;-83
2022/10/02 12:19:33;;;;;;;10.73;2.15;;;16.00;99.90;;;;;;5141349;27;20034;-83
2022/10/02 12:28:11;;;;;;;12.05;2.40;;;16.10;99.90;;;;;;5158038;27;20076;-82
2022/10/02 12:30:53;;;;;;;8.55;2.08;;;16.20;99.90;;;;;;5140594;27;20479;-83
2022/10/02 12:33:26;;;;;;;16.50;2.25;;;16.30;99.90;;;;;;5158306;27;20394;-83
2022/10/02 12:36:23;;;;;;;9.93;2.05;;;16.30;99.90;;;;;;5140575;27;20038;-83
2022/10/02 12:39:17;;;;;;;14.63;2.22;;;16.40;99.90;;;;;;5157852;27;20041;-83
2022/10/02 12:42:17;;;;;;;11.88;2.20;;;16.30;99.90;;;;;;5120766;27;20035;-83
2022/10/02 12:45:43;;;;;;;14.35;2.42;;;16.30;99.90;;;;;;5156255;27;20391;-83
2022/10/02 12:48:21;;;;;;;9.98;2.15;;;16.30;99.90;;;;;;5101268;27;20039;-82
2022/10/02 12:51:04;;;;;;;13.35;2.85;;;16.30;99.90;;;;;;5134040;27;20042;-82
2022/10/02 12:53:54;;;;;;;10.60;2.30;;;16.40;99.90;;;;;;5135080;27;20436;-83
2022/10/02 12:57:03;;;;;;;11.68;2.00;;;16.60;99.90;;;;;;5128894;27;20035;-82
2022/10/02 12:59:49;;;;;;;11.43;2.20;;;16.70;99.90;;;;;;5123114;27;20065;-82
2022/10/02 13:02:27;;;;;;;10.80;2.13;;;16.80;99.90;;;;;;5119229;27;20126;-82
2022/10/02 13:04:59;;;;;;;11.15;2.15;;;16.80;99.90;;;;;;5131227;27;20035;-82
2022/10/02 13:07:29;;;;;;;12.98;2.70;;;16.80;99.90;;;;;;5138455;27;20039;-82
2022/10/02 13:10:04;;;;;;;15.05;2.45;;;16.70;99.90;;;;;;5134847;27;20433;-81
2022/10/02 13:12:51;;;;;;;11.80;2.60;;;16.70;99.90;;;;;;5138043;27;20050;-82
2022/10/02 13:15:54;;;;;;;14.02;2.70;;;16.60;99.90;;;;;;5135051;27;20039;-82
2022/10/02 13:18:57;;;;;;;13.40;2.90;;;16.50;99.90;;;;;;5137284;27;20374;-81
2022/10/02 13:21:26;;;;;;;13.70;2.55;;;16.60;99.90;;;;;;5135177;27;20390;-83
2022/10/02 13:23:57;;;;;;;13.65;2.42;;;16.80;99.90;;;;;;5117868;27;20050;-82
2022/10/02 13:27:12;;;;;;;12.90;2.83;;;16.90;99.90;;;;;;5116871;27;20045;-82
2022/10/02 13:29:41;;;;;;;11.77;2.67;;;17.00;99.90;;;;;;5056990;28;20059;-83
2022/10/02 13:32:34;;;;;;;11.60;2.17;;;17.00;99.90;;;;;;5071061;28;20094;-83
2022/10/02 13:35:21;;;;;;;11.25;2.10;;;17.10;99.90;;;;;;5126583;27;20047;-82
2022/10/02 13:38:19;;;;;;;16.10;2.92;;;17.10;99.90;;;;;;5128750;27;20042;-82
2022/10/02 13:41:05;;;;;;;12.93;2.15;;;17.10;99.90;;;;;;5118950;27;20082;-82
2022/10/02 13:43:37;;;;;;;10.00;2.03;;;17.10;99.90;;;;;;5126167;27;20089;-83
2022/10/02 13:46:12;;;;;;;12.18;2.47;;;17.10;99.90;;;;;;5118938;27;20489;-83
2022/10/02 13:49:02;;;;;;;11.27;2.15;;;17.20;99.90;;;;;;5129636;27;20497;-82
2022/10/02 13:51:35;;;;;;;11.68;2.47;;;17.20;99.90;;;;;;5168197;27;20038;-86
2022/10/02 13:54:29;;;;;;;9.77;2.28;;;17.30;99.90;;;;;;5162121;27;20038;-85
2022/10/02 13:57:00;;;;;;;12.82;2.72;;;17.30;99.90;;;;;;5174266;27;20047;-85
2022/10/02 13:59:52;;;;;;;15.25;2.55;;;17.30;99.90;;;;;;5138035;27;20431;-85
2022/10/02 14:02:51;;;;;;;13.45;2.67;;;17.20;99.90;;;;;;5140235;27;20179;-86
2022/10/02 14:05:48;;;;;;;12.32;2.63;;;17.40;99.90;;;;;;5107044;27;20064;-86
2022/10/02 14:08:38;;;;;;;9.63;2.08;;;17.30;99.90;;;;;;5140035;27;20070;-87
2022/10/02 14:11:09;;;;;;;10.82;2.10;;;17.30;99.90;;;;;;5158001;27;20034;-85
2022/10/02 14:13:45;;;;;;;11.60;2.20;;;17.40;99.90;;;;;;5139733;27;20038;-86
2022/10/02 14:16:14;;;;;;;;;;;17.30;99.90;;;;;;5137197;27;20080;-86